Time;durP1;ratioP1;P1;durP2;ratioP2;P2;SDS_P1;SDS_P2;PMS_P1;PMS_P2;Temp;Humidity;BMP_temperature;BMP_pressure;BME280_temperature;BME280_humidity;BME280_pressure;Samples;Min_cycle;Max_cycle;Signal;HPM_P1;HPM_P2
2023/08/12 00:00:36;;;;;;;1.02;0.32;;;18.20;60.90;;;;;;6099991;23;20033;-63
2023/08/12 00:03:02;;;;;;;0.52;0.30;;;18.10;61.50;;;;;;6126559;23;20006;-63
2023/08/12 00:05:28;;;;;;;;;;;18.10;61.50;;;;;;6100488;23;20403;-64
2023/08/12 00:07:54;;;;;;;0.63;0.47;;;18.10;61.50;;;;;;6126493;23;19909;-62
2023/08/12 00:10:20;;;;;;;1.45;0.30;;;18.00;61.50;;;;;;6125813;23;20013;-62
2023/08/12 00:12:46;;;;;;;;;;;18.10;61.70;;;;;;6101501;23;20072;-63
2023/08/12 00:15:12;;;;;;;0.38;0.30;;;18.00;61.50;;;;;;6125650;23;19944;-63
2023/08/12 00:17:41;;;;;;;0.50;0.30;;;18.00;62.00;;;;;;6126841;23;20022;-63
2023/08/12 00:20:10;;;;;;;0.57;0.20;;;18.00;62.10;;;;;;6125624;23;20021;-63
2023/08/12 00:22:37;;;;;;;0.47;0.30;;;18.00;61.80;;;;;;6101213;23;20014;-62
2023/08/12 00:25:04;;;;;;;0.10;0.10;;;18.10;62.10;;;;;;6125909;23;20006;-63
2023/08/12 00:27:30;;;;;;;0.35;0.30;;;18.00;62.00;;;;;;6126213;23;20076;-63
2023/08/12 00:29:56;;;;;;;0.20;0.20;;;18.00;62.10;;;;;;6100382;23;20018;-63
2023/08/12 00:32:22;;;;;;;0.32;0.30;;;18.10;62.30;;;;;;6126161;23;20014;-63
2023/08/12 00:34:48;;;;;;;0.25;0.20;;;18.00;62.00;;;;;;6100346;23;20336;-63
2023/08/12 00:37:14;;;;;;;1.25;1.15;;;18.00;62.20;;;;;;6125749;23;20018;-62
2023/08/12 00:39:40;;;;;;;0.10;0.10;;;18.00;62.00;;;;;;6125838;23;20010;-63
2023/08/12 00:42:06;;;;;;;0.17;0.17;;;17.90;62.10;;;;;;6099832;23;20014;-62
2023/08/12 00:44:32;;;;;;;0.43;0.43;;;17.80;62.30;;;;;;6100582;23;20036;-62
2023/08/12 00:46:59;;;;;;;0.10;0.10;;;17.70;62.50;;;;;;6099671;23;20021;-63
2023/08/12 00:49:26;;;;;;;0.25;0.20;;;17.70;62.20;;;;;;6100137;23;20009;-63
2023/08/12 00:51:53;;;;;;;0.20;0.20;;;17.70;62.40;;;;;;6099561;23;20380;-63
2023/08/12 00:54:21;;;;;;;0.20;0.20;;;17.70;62.40;;;;;;6100007;23;20009;-62
2023/08/12 00:56:50;;;;;;;0.40;0.20;;;17.70;62.30;;;;;;6125537;23;20352;-62
2023/08/12 00:59:17;;;;;;;0.30;0.28;;;17.60;62.50;;;;;;6125814;23;20020;-62
2023/08/12 01:01:44;;;;;;;0.22;0.22;;;17.60;62.00;;;;;;6099571;23;20041;-63
2023/08/12 01:04:11;;;;;;;3.72;1.55;;;17.50;62.60;;;;;;6125875;23;20032;-62
2023/08/12 01:06:37;;;;;;;0.10;0.10;;;17.50;62.60;;;;;;6125494;23;20025;-62
2023/08/12 01:09:05;;;;;;;;;;;17.50;62.60;;;;;;6126547;23;20370;-63
2023/08/12 01:12:06;;;;;;;0.45;0.30;;;17.50;62.60;;;;;;6125468;23;19943;-63
2023/08/12 01:15:04;;;;;;;0.10;0.10;;;17.50;62.80;;;;;;6125860;23;20069;-62
2023/08/12 01:17:34;;;;;;;0.17;0.17;;;17.40;63.00;;;;;;6075673;23;20034;-63
2023/08/12 01:20:08;;;;;;;0.10;0.10;;;17.40;63.00;;;;;;6125355;23;20021;-63
2023/08/12 01:22:39;;;;;;;0.32;0.22;;;17.40;63.20;;;;;;6101542;23;20432;-62
2023/08/12 01:25:06;;;;;;;0.90;0.55;;;17.40;63.20;;;;;;6099824;23;20077;-62
2023/08/12 01:27:35;;;;;;;0.28;0.20;;;17.30;63.10;;;;;;6099891;23;20336;-62
2023/08/12 01:30:05;;;;;;;0.10;0.10;;;17.30;63.30;;;;;;6125679;23;20034;-63
2023/08/12 01:33:04;;;;;;;0.10;0.10;;;17.30;63.50;;;;;;6100647;23;20455;-62
2023/08/12 01:35:40;;;;;;;0.13;0.10;;;17.30;63.50;;;;;;6099554;23;20081;-62
2023/08/12 01:38:09;;;;;;;0.35;0.30;;;17.30;63.50;;;;;;6099688;23;20014;-63
2023/08/12 01:40:38;;;;;;;0.20;0.20;;;17.30;63.60;;;;;;6099267;23;20006;-62
2023/08/12 01:43:04;;;;;;;0.10;0.10;;;17.30;63.60;;;;;;6125999;23;20006;-63
2023/08/12 01:45:34;;;;;;;0.20;0.13;;;17.30;63.70;;;;;;6124678;23;20052;-63
2023/08/12 01:48:01;;;;;;;1.45;0.28;;;17.20;63.80;;;;;;6100441;23;20317;-63
2023/08/12 01:50:27;;;;;;;0.70;0.38;;;17.20;63.20;;;;;;6099295;23;20041;-62
2023/08/12 01:52:53;;;;;;;0.10;0.10;;;17.20;63.80;;;;;;6099855;23;20045;-62
2023/08/12 01:55:19;;;;;;;0.20;0.13;;;17.20;63.70;;;;;;6125005;23;20017;-63
2023/08/12 01:57:45;;;;;;;0.43;0.28;;;17.10;63.80;;;;;;6125941;23;20037;-62
2023/08/12 02:00:12;;;;;;;0.28;0.20;;;17.20;63.80;;;;;;6125029;23;20061;-62
2023/08/12 02:02:38;;;;;;;0.30;0.25;;;17.10;63.20;;;;;;6126176;23;20024;-63
2023/08/12 02:05:04;;;;;;;0.10;0.10;;;17.10;63.90;;;;;;6125394;23;20006;-62
2023/08/12 02:07:30;;;;;;;0.10;0.10;;;17.00;63.60;;;;;;6125751;23;20053;-62
2023/08/12 02:09:56;;;;;;;0.65;0.40;;;17.10;63.80;;;;;;6099607;23;20036;-63
2023/08/12 02:12:22;;;;;;;0.15;0.15;;;17.10;63.90;;;;;;6099316;23;20018;-63
2023/08/12 02:14:48;;;;;;;0.10;0.10;;;17.00;63.60;;;;;;6099372;23;20650;-63
2023/08/12 02:17:14;;;;;;;0.70;0.20;;;16.90;63.80;;;;;;6125160;23;20021;-62
2023/08/12 02:19:40;;;;;;;0.10;0.10;;;16.90;63.90;;;;;;6125184;23;20014;-62
2023/08/12 02:22:06;;;;;;;0.30;0.20;;;16.90;63.90;;;;;;6125379;23;20024;-62
2023/08/12 02:24:32;;;;;;;0.10;0.10;;;16.80;64.00;;;;;;6125309;23;20009;-62
2023/08/12 02:26:58;;;;;;;0.43;0.28;;;16.80;63.90;;;;;;6098921;23;20014;-64
2023/08/12 02:29:24;;;;;;;0.10;0.10;;;16.80;64.10;;;;;;6099450;23;20010;-63
2023/08/12 02:31:50;;;;;;;0.20;0.20;;;16.80;63.70;;;;;;6125375;23;20014;-62
2023/08/12 02:34:16;;;;;;;0.17;0.17;;;16.70;64.00;;;;;;6125322;23;20321;-63
2023/08/12 02:36:42;;;;;;;0.10;0.10;;;16.60;63.90;;;;;;6124901;23;20013;-62
2023/08/12 02:39:08;;;;;;;0.20;0.20;;;16.60;63.90;;;;;;6099443;23;20018;-63
2023/08/12 02:41:34;;;;;;;0.77;0.50;;;16.50;64.20;;;;;;6125031;23;20018;-62
2023/08/12 02:44:01;;;;;;;0.22;0.22;;;16.50;65.10;;;;;;6125452;23;20045;-64
2023/08/12 02:46:26;;;;;;;0.52;0.47;;;16.40;64.30;;;;;;6124570;23;20033;-62
2023/08/12 02:48:52;;;;;;;0.20;0.20;;;16.50;64.20;;;;;;6125203;23;20445;-62
2023/08/12 02:51:18;;;;;;;1.45;0.85;;;16.50;64.10;;;;;;6124884;23;20029;-62
2023/08/12 02:53:45;;;;;;;0.10;0.10;;;16.50;64.10;;;;;;6125442;23;20343;-63
2023/08/12 02:56:10;;;;;;;0.15;0.10;;;16.50;64.20;;;;;;6098607;23;20025;-62
2023/08/12 02:58:37;;;;;;;0.10;0.10;;;16.50;65.20;;;;;;6125255;23;20009;-63
2023/08/12 03:01:06;;;;;;;0.20;0.20;;;16.60;64.10;;;;;;6124787;23;20018;-63
2023/08/12 03:03:32;;;;;;;0.38;0.20;;;16.60;64.20;;;;;;6101800;23;20036;-63
2023/08/12 03:05:58;;;;;;;0.10;0.10;;;16.60;64.20;;;;;;6126326;23;20026;-64
2023/08/12 03:08:24;;;;;;;0.68;0.60;;;16.60;64.30;;;;;;6127073;23;20010;-62
2023/08/12 03:10:50;;;;;;;0.20;0.20;;;16.60;64.60;;;;;;6126274;23;20025;-64
2023/08/12 03:13:17;;;;;;;1.30;0.25;;;16.60;64.90;;;;;;6101447;23;20010;-62
2023/08/12 03:15:43;;;;;;;0.68;0.32;;;16.60;65.40;;;;;;6126141;23;20016;-62
2023/08/12 03:18:09;;;;;;;0.50;0.50;;;16.60;65.20;;;;;;6126877;23;20025;-63
2023/08/12 03:20:35;;;;;;;0.50;0.30;;;16.70;65.20;;;;;;6125969;23;20014;-64
2023/08/12 03:23:01;;;;;;;0.28;0.20;;;16.70;65.20;;;;;;6100935;23;20352;-64
2023/08/12 03:25:27;;;;;;;0.40;0.30;;;16.80;65.40;;;;;;6100087;23;20014;-64
2023/08/12 03:27:53;;;;;;;0.13;0.10;;;16.80;65.70;;;;;;6100866;23;20325;-63
2023/08/12 03:30:19;;;;;;;0.93;0.43;;;16.70;66.00;;;;;;6126294;23;20075;-63
2023/08/12 03:32:45;;;;;;;0.40;0.40;;;16.80;66.10;;;;;;6127492;23;20014;-64
2023/08/12 03:35:11;;;;;;;0.30;0.25;;;16.70;66.70;;;;;;6100192;23;20014;-62
2023/08/12 03:37:37;;;;;;;0.10;0.10;;;16.70;66.80;;;;;;6126945;23;20483;-62
2023/08/12 03:40:03;;;;;;;2.95;0.52;;;16.80;66.60;;;;;;6100617;23;20010;-62
2023/08/12 03:42:29;;;;;;;0.25;0.20;;;16.80;66.00;;;;;;6126871;23;20342;-64
2023/08/12 03:44:55;;;;;;;0.88;0.52;;;16.90;66.60;;;;;;6126548;23;20072;-62
2023/08/12 03:47:23;;;;;;;0.30;0.30;;;16.80;66.30;;;;;;6126573;23;20021;-64
2023/08/12 03:49:49;;;;;;;0.45;0.40;;;16.90;66.50;;;;;;6126475;23;20024;-64
2023/08/12 03:52:15;;;;;;;0.30;0.30;;;16.90;66.60;;;;;;6126523;23;20037;-62
2023/08/12 03:54:41;;;;;;;1.40;0.73;;;16.90;66.60;;;;;;6126527;23;20010;-64
2023/08/12 03:57:07;;;;;;;0.47;0.20;;;17.00;66.60;;;;;;6126322;23;20014;-64
2023/08/12 03:59:33;;;;;;;0.22;0.22;;;17.00;66.70;;;;;;6126340;23;20041;-64
2023/08/12 04:01:59;;;;;;;0.10;0.10;;;17.00;66.70;;;;;;6126319;23;20014;-62
2023/08/12 04:04:25;;;;;;;0.63;0.28;;;17.00;66.80;;;;;;6100408;23;20014;-64
2023/08/12 04:06:51;;;;;;;;;;;17.00;67.00;;;;;;6100651;23;20332;-62
2023/08/12 04:09:37;;;;;;;0.20;0.20;;;17.00;67.10;;;;;;6100320;23;19943;-64
2023/08/12 04:12:03;;;;;;;0.75;0.50;;;17.00;66.90;;;;;;6126363;23;20069;-62
2023/08/12 04:14:29;;;;;;;;;;;17.00;66.90;;;;;;6126448;23;20452;-63
2023/08/12 04:16:56;;;;;;;0.10;0.10;;;17.00;67.00;;;;;;6125991;23;19924;-62
2023/08/12 04:19:22;;;;;;;0.73;0.57;;;17.00;67.10;;;;;;6126000;23;20113;-62
2023/08/12 04:21:48;;;;;;;0.30;0.30;;;17.00;67.20;;;;;;6100045;23;20014;-62
2023/08/12 04:24:14;;;;;;;0.28;0.28;;;17.00;66.90;;;;;;6100428;23;20049;-63
2023/08/12 04:26:40;;;;;;;1.38;0.20;;;17.10;66.90;;;;;;6125504;23;20428;-63
2023/08/12 04:29:06;;;;;;;;;;;17.10;66.90;;;;;;6101007;23;20006;-62
2023/08/12 04:31:32;;;;;;;0.17;0.15;;;17.10;67.00;;;;;;6125923;23;19959;-62
2023/08/12 04:33:58;;;;;;;0.70;0.47;;;17.10;66.90;;;;;;6100370;23;20021;-62
2023/08/12 04:36:24;;;;;;;0.45;0.45;;;17.10;66.80;;;;;;6099652;23;20017;-64
2023/08/12 04:38:50;;;;;;;0.77;0.40;;;17.10;67.10;;;;;;6075987;23;20018;-64
2023/08/12 04:41:16;;;;;;;0.52;0.40;;;17.10;67.10;;;;;;6099340;23;20042;-62
2023/08/12 04:43:42;;;;;;;0.20;0.20;;;17.20;67.00;;;;;;6126620;23;20061;-62
2023/08/12 04:46:08;;;;;;;0.17;0.17;;;17.20;67.60;;;;;;6099572;23;20022;-62
2023/08/12 04:48:34;;;;;;;0.10;0.10;;;17.30;66.80;;;;;;6126030;23;20329;-62
2023/08/12 04:51:01;;;;;;;0.20;0.20;;;17.30;66.80;;;;;;6099482;23;20022;-62
2023/08/12 04:53:27;;;;;;;0.10;0.10;;;17.30;66.80;;;;;;6100113;23;20084;-62
2023/08/12 04:55:56;;;;;;;0.10;0.10;;;17.40;66.60;;;;;;6125143;23;20022;-63
2023/08/12 04:58:22;;;;;;;0.10;0.10;;;17.40;66.50;;;;;;6099977;23;20009;-62
2023/08/12 05:00:50;;;;;;;;;;;17.40;66.10;;;;;;6100109;23;20021;-64
2023/08/12 05:03:16;;;;;;;0.20;0.15;;;17.40;66.80;;;;;;6149087;23;19909;-62
2023/08/12 05:05:42;;;;;;;0.20;0.20;;;17.40;66.70;;;;;;6125458;23;20339;-63
2023/08/12 05:08:08;;;;;;;0.22;0.22;;;17.50;66.70;;;;;;6125877;23;20005;-62
2023/08/12 05:10:34;;;;;;;0.45;0.30;;;17.50;66.50;;;;;;6099617;23;20014;-63
2023/08/12 05:13:00;;;;;;;0.50;0.50;;;17.50;66.40;;;;;;6099939;23;20139;-62
2023/08/12 05:15:26;;;;;;;0.10;0.10;;;17.60;66.30;;;;;;6125490;23;20494;-64
2023/08/12 05:17:52;;;;;;;0.40;0.40;;;17.60;66.50;;;;;;6125670;23;20034;-64
2023/08/12 05:20:18;;;;;;;0.20;0.20;;;17.60;66.40;;;;;;6124953;23;20018;-62
2023/08/12 05:22:44;;;;;;;0.75;0.43;;;17.70;66.40;;;;;;6126387;23;20462;-64
2023/08/12 05:25:10;;;;;;;0.10;0.10;;;17.80;66.20;;;;;;6124889;23;20010;-64
2023/08/12 05:27:36;;;;;;;1.88;0.45;;;17.80;66.10;;;;;;6099930;23;20065;-64
2023/08/12 05:30:03;;;;;;;0.55;0.30;;;17.80;66.20;;;;;;6125509;23;20009;-62
2023/08/12 05:32:29;;;;;;;0.10;0.10;;;17.80;65.50;;;;;;6125279;23;20383;-63
2023/08/12 05:34:55;;;;;;;0.90;0.75;;;17.80;66.20;;;;;;6125689;23;20061;-63
2023/08/12 05:37:21;;;;;;;0.10;0.10;;;17.90;65.60;;;;;;6099425;23;20014;-63
2023/08/12 05:39:48;;;;;;;0.75;0.20;;;17.90;66.40;;;;;;6125517;23;20463;-62
2023/08/12 05:42:14;;;;;;;0.15;0.15;;;18.00;66.20;;;;;;6125564;23;20018;-64
2023/08/12 05:44:42;;;;;;;0.22;0.10;;;18.10;66.00;;;;;;6125561;23;20010;-64
2023/08/12 05:47:08;;;;;;;0.20;0.20;;;18.10;65.70;;;;;;6099459;23;20022;-62
2023/08/12 05:49:34;;;;;;;0.10;0.10;;;18.20;66.10;;;;;;6099566;23;20017;-63
2023/08/12 05:52:00;;;;;;;0.10;0.10;;;18.20;66.20;;;;;;6125022;23;20018;-62
2023/08/12 05:54:26;;;;;;;0.20;0.20;;;18.30;66.00;;;;;;6099794;23;20006;-63
2023/08/12 05:56:52;;;;;;;0.10;0.10;;;18.40;65.90;;;;;;6099087;23;20022;-62
2023/08/12 05:59:18;;;;;;;;;;;18.40;65.20;;;;;;6100093;23;20368;-62
2023/08/12 06:01:44;;;;;;;0.05;0.05;;;18.40;66.20;;;;;;6148185;23;19995;-62
2023/08/12 06:04:10;;;;;;;0.20;0.15;;;18.40;65.80;;;;;;6125643;23;20061;-62
2023/08/12 06:06:36;;;;;;;0.32;0.20;;;18.50;66.10;;;;;;6125215;23;20424;-63
2023/08/12 06:09:03;;;;;;;1.20;1.00;;;18.70;66.00;;;;;;6099752;23;20019;-64
2023/08/12 06:11:29;;;;;;;0.32;0.30;;;18.70;66.10;;;;;;6098932;23;20104;-63
2023/08/12 06:13:55;;;;;;;0.13;0.13;;;18.60;67.30;;;;;;6125653;23;20384;-62
2023/08/12 06:16:21;;;;;;;0.20;0.20;;;18.60;67.00;;;;;;6098822;23;20014;-63
2023/08/12 06:18:47;;;;;;;0.60;0.30;;;18.50;67.70;;;;;;6125358;23;20022;-63
2023/08/12 06:21:13;;;;;;;1.00;0.55;;;18.40;68.10;;;;;;6124471;23;20329;-63
2023/08/12 06:23:39;;;;;;;0.70;0.45;;;18.30;68.90;;;;;;6125902;23;20450;-63
2023/08/12 06:26:05;;;;;;;1.02;0.80;;;18.30;68.30;;;;;;6124634;23;20018;-63
2023/08/12 06:28:31;;;;;;;0.70;0.28;;;18.30;69.40;;;;;;6125341;23;20010;-62
2023/08/12 06:30:58;;;;;;;0.65;0.50;;;18.50;68.30;;;;;;6124762;23;20025;-62
2023/08/12 06:33:24;;;;;;;0.47;0.35;;;18.60;67.40;;;;;;6125543;23;20013;-63
2023/08/12 06:35:51;;;;;;;0.10;0.10;;;18.80;67.10;;;;;;6124697;23;20059;-63
2023/08/12 06:38:17;;;;;;;0.30;0.30;;;18.90;66.60;;;;;;6126569;23;20041;-63
2023/08/12 06:40:43;;;;;;;;;;;19.00;67.00;;;;;;6127198;23;20017;-62
2023/08/12 06:43:10;;;;;;;0.38;0.25;;;19.00;66.60;;;;;;6150453;23;19920;-63
2023/08/12 06:45:36;;;;;;;1.45;0.95;;;19.10;66.20;;;;;;6126221;23;20014;-63
2023/08/12 06:48:02;;;;;;;1.17;1.08;;;19.20;66.10;;;;;;6127158;23;20016;-63
2023/08/12 06:50:28;;;;;;;0.35;0.30;;;19.30;66.10;;;;;;6125557;23;20036;-63
2023/08/12 06:52:54;;;;;;;;;;;19.40;66.10;;;;;;6101743;23;20317;-63
2023/08/12 06:55:20;;;;;;;0.35;0.30;;;19.50;66.10;;;;;;6099946;23;20004;-64
2023/08/12 06:57:46;;;;;;;0.68;0.65;;;19.50;65.90;;;;;;6101419;23;20564;-63
2023/08/12 07:00:13;;;;;;;;;;;19.80;65.40;;;;;;6126849;23;20088;-64
2023/08/12 07:02:42;;;;;;;0.30;0.30;;;19.90;65.80;;;;;;6127537;23;19920;-64
2023/08/12 07:05:08;;;;;;;0.20;0.20;;;20.10;65.10;;;;;;6101711;23;20340;-63
2023/08/12 07:07:35;;;;;;;0.25;0.25;;;20.20;64.00;;;;;;6101428;23;20022;-63
2023/08/12 07:10:00;;;;;;;;;;;20.40;63.70;;;;;;6101757;23;20428;-63
2023/08/12 07:12:27;;;;;;;0.17;0.10;;;20.70;64.70;;;;;;6100492;23;19924;-63
2023/08/12 07:14:52;;;;;;;;;;;20.90;63.20;;;;;;6127688;23;20045;-64
2023/08/12 07:17:18;;;;;;;0.10;0.10;;;21.30;64.10;;;;;;6100518;23;19920;-64
2023/08/12 07:19:44;;;;;;;0.35;0.20;;;21.60;62.10;;;;;;6126541;23;20321;-63
2023/08/12 07:22:10;;;;;;;1.05;0.43;;;21.90;61.20;;;;;;6100669;23;20042;-63
2023/08/12 07:24:36;;;;;;;0.10;0.10;;;22.20;60.30;;;;;;6126898;23;20010;-64
2023/08/12 07:27:02;;;;;;;;;;;22.50;60.00;;;;;;6127070;23;20018;-64
2023/08/12 07:29:28;;;;;;;0.38;0.30;;;22.70;61.00;;;;;;6149836;23;20212;-64
2023/08/12 07:31:54;;;;;;;;;;;23.00;59.10;;;;;;6127206;23;20340;-64
2023/08/12 07:34:20;;;;;;;0.20;0.20;;;23.10;59.60;;;;;;6126694;23;19995;-63
2023/08/12 07:36:46;;;;;;;;;;;23.30;58.40;;;;;;6126972;23;20022;-64
2023/08/12 07:39:12;;;;;;;0.30;0.30;;;23.50;58.70;;;;;;6126473;23;20004;-64
2023/08/12 07:41:38;;;;;;;;;;;23.70;56.60;;;;;;6127074;23;20014;-63
2023/08/12 07:44:05;;;;;;;0.63;0.25;;;23.90;56.50;;;;;;6126715;23;19955;-64
2023/08/12 07:46:31;;;;;;;0.80;0.30;;;24.00;54.60;;;;;;6099921;23;20073;-65
2023/08/12 07:48:57;;;;;;;;;;;24.40;54.60;;;;;;6127509;23;20321;-65
2023/08/12 07:51:23;;;;;;;0.75;0.75;;;24.70;54.40;;;;;;6126062;23;19917;-64
2023/08/12 07:53:49;;;;;;;;;;;25.10;52.70;;;;;;6127372;23;20014;-65
2023/08/12 07:56:15;;;;;;;0.55;0.30;;;25.60;52.50;;;;;;6125719;23;19917;-64
2023/08/12 07:58:41;;;;;;;;;;;26.00;51.20;;;;;;6126991;23;20013;-64
2023/08/12 08:01:09;;;;;;;0.28;0.28;;;26.50;51.50;;;;;;6126215;23;20323;-64
2023/08/12 08:03:35;;;;;;;0.20;0.20;;;27.00;47.30;;;;;;6126617;23;20006;-65
2023/08/12 08:06:01;;;;;;;1.33;0.65;;;27.40;45.20;;;;;;6125695;23;20021;-65
2023/08/12 08:08:27;;;;;;;0.15;0.15;;;27.90;43.90;;;;;;6126349;23;20006;-65
2023/08/12 08:10:53;;;;;;;0.22;0.22;;;28.30;42.80;;;;;;6125719;23;20512;-65
2023/08/12 08:13:19;;;;;;;0.57;0.47;;;28.90;42.70;;;;;;6100502;23;20010;-65
2023/08/12 08:15:45;;;;;;;0.30;0.30;;;29.60;41.90;;;;;;6125695;23;20013;-66
2023/08/12 08:18:12;;;;;;;1.08;0.57;;;30.00;39.70;;;;;;6100342;23;20093;-65
2023/08/12 08:20:38;;;;;;;0.47;0.22;;;30.50;38.30;;;;;;6125332;23;20037;-66
2023/08/12 08:23:04;;;;;;;1.48;0.70;;;30.90;37.10;;;;;;6126340;23;20017;-67
2023/08/12 08:25:30;;;;;;;0.38;0.38;;;31.50;36.40;;;;;;6125244;23;20077;-67
2023/08/12 08:27:56;;;;;;;0.43;0.38;;;32.10;35.50;;;;;;6126076;23;20009;-66
2023/08/12 08:30:22;;;;;;;0.35;0.35;;;32.80;34.20;;;;;;6125609;23;20037;-67
2023/08/12 08:32:49;;;;;;;0.65;0.50;;;33.40;34.00;;;;;;6126839;23;20037;-66
2023/08/12 08:35:15;;;;;;;1.50;0.90;;;34.00;33.10;;;;;;6125702;23;20014;-67
2023/08/12 08:37:41;;;;;;;0.30;0.30;;;34.50;31.10;;;;;;6126245;23;20014;-67
2023/08/12 08:40:08;;;;;;;0.40;0.40;;;35.10;31.10;;;;;;6125702;23;20021;-67
2023/08/12 08:42:34;;;;;;;0.30;0.30;;;35.60;29.50;;;;;;6100108;23;20018;-67
2023/08/12 08:45:03;;;;;;;0.40;0.40;;;36.20;28.00;;;;;;6100267;23;20045;-67
2023/08/12 08:47:29;;;;;;;1.00;0.73;;;36.70;27.30;;;;;;6100057;23;20010;-66
2023/08/12 08:49:57;;;;;;;0.47;0.47;;;37.10;26.90;;;;;;6100273;23;20014;-67
2023/08/12 08:52:43;;;;;;;0.40;0.38;;;37.60;26.30;;;;;;6125991;23;20021;-67
2023/08/12 08:55:09;;;;;;;1.52;1.33;;;38.10;25.00;;;;;;6125410;23;20048;-66
2023/08/12 08:57:37;;;;;;;0.88;0.80;;;38.60;25.10;;;;;;6076026;23;20006;-67
2023/08/12 09:00:07;;;;;;;0.70;0.60;;;39.20;24.40;;;;;;6075499;23;20030;-67
2023/08/12 09:02:34;;;;;;;1.15;0.95;;;39.60;23.80;;;;;;6125898;23;20010;-66
2023/08/12 09:05:02;;;;;;;0.30;0.30;;;40.10;23.60;;;;;;6100009;23;20013;-67
2023/08/12 09:07:30;;;;;;;0.68;0.65;;;40.70;22.10;;;;;;6099757;23;20308;-67
2023/08/12 09:09:58;;;;;;;0.40;0.40;;;41.00;22.20;;;;;;6100060;23;20021;-67
2023/08/12 09:12:25;;;;;;;0.50;0.50;;;41.50;20.30;;;;;;6099614;23;20013;-67
2023/08/12 09:14:51;;;;;;;0.70;0.60;;;41.80;20.40;;;;;;6075936;23;20010;-67
2023/08/12 09:17:17;;;;;;;1.50;0.93;;;42.20;19.50;;;;;;6099095;23;20073;-67
2023/08/12 09:19:44;;;;;;;0.70;0.70;;;42.50;18.80;;;;;;6125499;23;20022;-67
2023/08/12 09:22:10;;;;;;;0.60;0.50;;;42.40;18.80;;;;;;6099660;23;20025;-67
2023/08/12 09:24:36;;;;;;;0.75;0.70;;;42.90;18.60;;;;;;6125636;23;20340;-68
2023/08/12 09:27:02;;;;;;;0.50;0.50;;;43.50;18.80;;;;;;6125154;23;20021;-67
2023/08/12 09:29:35;;;;;;;0.70;0.70;;;43.80;17.80;;;;;;6125700;23;20010;-67
2023/08/12 09:32:20;;;;;;;0.60;0.60;;;44.00;17.40;;;;;;6099540;23;20014;-67
2023/08/12 09:35:16;;;;;;;0.90;0.85;;;44.30;16.90;;;;;;6099934;23;20010;-67
2023/08/12 09:37:42;;;;;;;1.17;0.80;;;44.80;17.40;;;;;;6100171;23;20133;-67
2023/08/12 09:40:09;;;;;;;0.80;0.80;;;45.40;16.70;;;;;;6099331;23;20010;-67
2023/08/12 09:42:35;;;;;;;0.63;0.60;;;45.80;15.80;;;;;;6100022;23;20014;-67
2023/08/12 09:45:02;;;;;;;0.80;0.80;;;46.30;16.10;;;;;;6100115;23;20010;-66
2023/08/12 09:47:28;;;;;;;0.63;0.63;;;46.40;15.40;;;;;;6125494;23;20089;-66
2023/08/12 09:49:55;;;;;;;1.02;1.00;;;46.50;15.20;;;;;;6125489;23;20045;-67
2023/08/12 09:52:22;;;;;;;0.93;0.90;;;47.00;14.20;;;;;;6099343;23;20122;-67
2023/08/12 09:54:50;;;;;;;0.80;0.80;;;47.20;14.30;;;;;;6125643;23;20006;-67
2023/08/12 09:57:19;;;;;;;0.80;0.80;;;47.80;14.10;;;;;;6099171;23;20025;-67
2023/08/12 09:59:46;;;;;;;1.10;1.00;;;48.30;14.20;;;;;;6125400;23;20018;-67
2023/08/12 10:02:18;;;;;;;1.08;1.00;;;48.90;13.30;;;;;;6099065;23;20021;-66
2023/08/12 10:04:45;;;;;;;1.42;1.10;;;49.20;11.80;;;;;;6100174;23;20038;-68
2023/08/12 10:07:12;;;;;;;1.20;1.10;;;49.20;11.50;;;;;;6099238;23;20018;-68
2023/08/12 10:09:39;;;;;;;1.30;1.20;;;49.50;11.70;;;;;;6099796;23;20006;-68
2023/08/12 10:12:07;;;;;;;1.50;1.27;;;49.60;10.20;;;;;;6125832;23;20021;-67
2023/08/12 10:14:34;;;;;;;1.10;1.00;;;49.60;10.80;;;;;;6101482;23;20424;-67
2023/08/12 10:17:00;;;;;;;0.98;0.95;;;50.00;12.00;;;;;;6101157;23;20025;-68
2023/08/12 10:19:27;;;;;;;1.30;1.20;;;50.50;11.10;;;;;;6101145;23;20025;-68
2023/08/12 10:22:14;;;;;;;1.65;1.42;;;50.80;10.30;;;;;;6077157;23;20480;-67
2023/08/12 10:24:43;;;;;;;1.17;1.08;;;51.00;10.00;;;;;;6101554;23;20096;-68
2023/08/12 10:27:12;;;;;;;1.88;1.67;;;51.20;10.80;;;;;;6100970;23;20025;-68
2023/08/12 10:29:38;;;;;;;1.40;1.30;;;51.70;9.70;;;;;;6101567;23;20388;-67
2023/08/12 10:32:05;;;;;;;1.80;1.70;;;51.70;10.30;;;;;;6100783;23;20014;-67
2023/08/12 10:34:32;;;;;;;1.55;1.45;;;51.90;9.60;;;;;;6101712;23;20064;-67
2023/08/12 10:37:02;;;;;;;1.50;1.40;;;52.20;10.60;;;;;;6126846;23;20042;-67
2023/08/12 10:39:31;;;;;;;2.08;1.88;;;52.20;10.80;;;;;;6077655;23;20010;-68
2023/08/12 10:41:58;;;;;;;1.95;1.75;;;52.40;10.60;;;;;;6127014;23;20014;-68
2023/08/12 10:44:40;;;;;;;2.53;2.08;;;52.60;10.40;;;;;;6101327;23;20022;-67
2023/08/12 10:47:24;;;;;;;2.05;1.85;;;53.00;10.90;;;;;;6101295;23;20077;-68
2023/08/12 10:49:53;;;;;;;2.55;2.20;;;53.30;10.30;;;;;;6127183;23;20010;-67
2023/08/12 10:52:38;;;;;;;2.10;1.90;;;53.30;10.30;;;;;;6126616;23;20018;-67
2023/08/12 10:55:25;;;;;;;2.05;1.75;;;53.40;9.70;;;;;;6126775;23;20006;-68
2023/08/12 10:58:16;;;;;;;1.67;1.58;;;53.60;9.90;;;;;;6101471;23;20029;-68
2023/08/12 11:00:42;;;;;;;3.20;2.53;;;53.90;9.90;;;;;;6100842;23;20021;-68
2023/08/12 11:03:08;;;;;;;2.53;2.33;;;54.10;9.90;;;;;;6126975;23;20006;-68
2023/08/12 11:05:37;;;;;;;2.97;2.67;;;54.60;9.70;;;;;;6126299;23;20060;-67
2023/08/12 11:08:05;;;;;;;2.47;2.28;;;54.30;8.00;;;;;;6098468;23;20092;-68
2023/08/12 11:10:34;;;;;;;3.05;2.75;;;54.50;9.10;;;;;;6092837;23;20010;-67
2023/08/12 11:13:02;;;;;;;3.53;2.80;;;54.80;9.10;;;;;;6118951;23;20014;-68
2023/08/12 11:15:49;;;;;;;2.55;2.35;;;54.90;9.10;;;;;;6092389;23;20359;-68
2023/08/12 11:18:35;;;;;;;3.20;2.90;;;55.50;8.70;;;;;;6093106;23;20009;-67
2023/08/12 11:21:02;;;;;;;3.20;2.90;;;55.40;8.50;;;;;;6069351;23;20089;-68
2023/08/12 11:23:29;;;;;;;3.15;2.85;;;55.70;7.70;;;;;;6063725;23;20006;-68
2023/08/12 11:25:55;;;;;;;3.22;2.92;;;55.70;8.20;;;;;;6088516;23;20029;-68
2023/08/12 11:28:21;;;;;;;3.58;3.28;;;55.90;8.30;;;;;;6089832;23;20010;-68
2023/08/12 11:30:47;;;;;;;3.63;3.33;;;55.90;7.80;;;;;;6063062;23;20026;-69
2023/08/12 11:33:18;;;;;;;3.40;3.10;;;55.80;7.80;;;;;;6089325;23;20168;-68
2023/08/12 11:35:44;;;;;;;4.90;4.10;;;56.20;8.20;;;;;;6064121;23;20368;-68
2023/08/12 11:38:10;;;;;;;3.38;3.08;;;56.10;8.20;;;;;;6063880;23;20014;-68
2023/08/12 11:40:36;;;;;;;3.42;3.13;;;56.10;6.90;;;;;;6063511;23;20021;-68
2023/08/12 11:43:03;;;;;;;3.72;3.42;;;56.30;7.90;;;;;;6089592;23;20014;-68
2023/08/12 11:45:29;;;;;;;3.50;3.20;;;56.70;7.60;;;;;;6088896;23;20018;-67
2023/08/12 11:47:55;;;;;;;3.65;3.35;;;56.80;7.40;;;;;;6089124;23;20436;-68
2023/08/12 11:50:25;;;;;;;3.67;3.38;;;57.30;7.80;;;;;;6088615;23;20018;-66
2023/08/12 11:52:52;;;;;;;4.18;3.78;;;57.80;7.00;;;;;;6088749;23;20089;-67
2023/08/12 11:55:18;;;;;;;4.22;3.85;;;58.30;7.10;;;;;;6063393;23;20022;-67
2023/08/12 11:57:45;;;;;;;4.40;4.07;;;58.60;6.30;;;;;;6063658;23;20019;-68
2023/08/12 12:00:18;;;;;;;4.20;3.80;;;58.30;6.10;;;;;;6062952;23;20062;-67
2023/08/12 12:03:03;;;;;;;4.80;4.40;;;58.00;7.00;;;;;;6063763;23;20018;-66
2023/08/12 12:05:30;;;;;;;4.72;4.32;;;57.70;5.80;;;;;;6088233;23;20014;-66
2023/08/12 12:07:56;;;;;;;4.78;4.38;;;57.80;6.80;;;;;;6088681;23;20089;-67
2023/08/12 12:10:42;;;;;;;5.13;4.72;;;57.70;6.80;;;;;;6062739;23;20041;-67
2023/08/12 12:13:10;;;;;;;4.32;3.92;;;57.50;6.60;;;;;;6088808;23;20025;-68
2023/08/12 12:15:55;;;;;;;4.05;3.65;;;57.60;6.10;;;;;;6087867;23;20479;-67
2023/08/12 12:18:21;;;;;;;4.00;3.65;;;58.00;7.20;;;;;;6088407;23;20505;-66
2023/08/12 12:20:58;;;;;;;4.60;4.20;;;58.20;7.30;;;;;;6107715;23;20026;-68
2023/08/12 12:23:43;;;;;;;5.32;4.93;;;58.70;6.60;;;;;;6092675;23;20014;-67
2023/08/12 12:26:10;;;;;;;6.45;5.95;;;59.00;6.70;;;;;;6117658;23;20086;-66
2023/08/12 12:28:35;;;;;;;5.72;5.32;;;59.40;6.60;;;;;;6118751;23;20010;-68
2023/08/12 12:31:01;;;;;;;6.55;6.05;;;59.50;6.90;;;;;;6090200;23;20328;-66
2023/08/12 12:33:28;;;;;;;5.78;5.38;;;59.60;6.60;;;;;;6117100;23;20017;-68
2023/08/12 12:35:54;;;;;;;5.53;5.13;;;59.40;6.40;;;;;;6116105;23;20495;-66
2023/08/12 12:38:20;;;;;;;5.93;5.50;;;59.10;6.50;;;;;;6090428;23;20018;-68
2023/08/12 12:40:46;;;;;;;6.97;6.47;;;59.50;6.80;;;;;;6115641;23;20511;-66
2023/08/12 12:43:12;;;;;;;6.70;6.20;;;59.80;6.50;;;;;;6090957;23;20371;-68
2023/08/12 12:45:38;;;;;;;6.85;6.35;;;60.10;6.80;;;;;;6116800;23;20068;-65
2023/08/12 12:48:04;;;;;;;6.95;6.45;;;60.10;7.00;;;;;;6117059;23;20344;-66
2023/08/12 12:50:30;;;;;;;7.00;6.50;;;60.40;6.30;;;;;;6066541;23;20025;-68
2023/08/12 12:52:56;;;;;;;7.28;6.78;;;60.20;7.00;;;;;;6117191;23;20495;-67
2023/08/12 12:55:23;;;;;;;6.45;5.95;;;60.00;7.30;;;;;;6090378;23;20399;-68